Time;durP1;ratioP1;P1;durP2;ratioP2;P2;SDS_P1;SDS_P2;PMS_P1;PMS_P2;Temp;Humidity;BMP_temperature;BMP_pressure;BME280_temperature;BME280_humidity;BME280_pressure;Samples;Min_cycle;Max_cycle;Signal;HPM_P1;HPM_P2
2022/07/31 00:00:49;;;;;;;6.80;4.03;;;;;;;20.53;72.31;97451.91;1803592;79;20916;-68
2022/07/31 00:03:16;;;;;;;7.60;3.92;;;;;;;20.49;72.58;97447.00;1803656;79;21421;-68
2022/07/31 00:05:43;;;;;;;6.37;3.72;;;;;;;20.44;72.80;97446.15;1803584;79;20968;-68
2022/07/31 00:08:10;;;;;;;5.72;3.77;;;;;;;20.40;73.10;97443.17;1803707;79;21062;-68
2022/07/31 00:10:37;;;;;;;7.80;4.08;;;;;;;20.38;73.33;97443.55;1803628;79;20909;-69
2022/07/31 00:13:04;;;;;;;13.38;3.87;;;;;;;20.36;73.53;97442.34;1803578;79;20917;-68
2022/07/31 00:15:31;;;;;;;6.28;3.85;;;;;;;20.35;73.73;97430.67;1803880;79;21370;-68
2022/07/31 00:18:01;;;;;;;9.40;4.30;;;;;;;20.31;73.83;97429.85;1803747;79;20870;-71
2022/07/31 00:20:28;;;;;;;8.95;4.40;;;;;;;20.28;74.03;97430.58;1803652;79;21637;-69
2022/07/31 00:22:56;;;;;;;13.40;4.05;;;;;;;20.25;74.28;97429.97;1803563;79;21467;-70
2022/07/31 00:25:23;;;;;;;5.80;3.87;;;;;;;20.19;74.53;97430.02;1803552;79;20897;-68
2022/07/31 00:27:49;;;;;;;6.22;3.58;;;;;;;20.15;74.80;97429.20;1803677;79;20889;-69
2022/07/31 00:30:16;;;;;;;6.55;3.72;;;;;;;20.13;75.09;97430.70;1803593;79;20928;-67
2022/07/31 00:32:46;;;;;;;10.55;4.05;;;;;;;20.11;75.31;97431.08;1803588;79;21058;-68
2022/07/31 00:35:12;;;;;;;8.63;4.15;;;;;;;20.11;75.42;97437.88;1803524;79;20872;-69
2022/07/31 00:37:40;;;;;;;8.68;3.75;;;;;;;20.10;75.57;97429.50;1803905;78;21402;-69
2022/07/31 00:40:09;;;;;;;6.90;4.15;;;;;;;20.10;75.75;97443.09;1803560;79;20929;-70
2022/07/31 00:42:36;;;;;;;14.90;4.60;;;;;;;20.09;75.87;97440.75;1803675;79;20928;-68
2022/07/31 00:45:05;;;;;;;9.55;3.90;;;;;;;20.10;76.03;97444.45;1803630;79;21234;-70
2022/07/31 00:47:31;;;;;;;5.22;3.92;;;;;;;20.12;76.16;97448.16;1803622;79;21345;-69
2022/07/31 00:49:58;;;;;;;11.15;4.30;;;;;;;20.12;76.23;97450.30;1803555;79;20837;-68
2022/07/31 00:52:25;;;;;;;8.43;3.80;;;;;;;20.16;76.29;97450.38;1803659;79;20905;-68
2022/07/31 00:54:51;;;;;;;7.92;4.10;;;;;;;20.18;76.27;97447.50;1803587;79;20842;-68
2022/07/31 00:57:18;;;;;;;8.65;4.12;;;;;;;20.19;76.33;97453.14;1803665;79;21229;-67
2022/07/31 00:59:44;;;;;;;8.18;4.03;;;;;;;20.20;76.49;97453.36;1803497;79;20976;-67
2022/07/31 01:02:11;;;;;;;7.83;4.17;;;;;;;20.21;76.59;97449.47;1803879;79;21373;-68
2022/07/31 01:04:37;;;;;;;8.60;4.35;;;;;;;20.22;76.66;97452.44;1803936;79;21478;-68
2022/07/31 01:07:04;;;;;;;12.65;4.40;;;;;;;20.22;76.88;97458.45;1803670;79;20947;-68
2022/07/31 01:09:30;;;;;;;5.30;4.30;;;;;;;20.18;77.11;97459.74;1803543;79;21217;-67
2022/07/31 01:12:14;;;;;;;8.33;4.58;;;;;;;20.18;77.41;97463.03;1803588;79;20881;-68
2022/07/31 01:14:49;;;;;;;10.73;4.80;;;;;;;20.15;77.58;97458.31;1803836;79;20908;-67
2022/07/31 01:17:17;;;;;;;10.35;5.22;;;;;;;20.13;77.85;97457.33;1803713;79;20956;-68
2022/07/31 01:19:44;;;;;;;12.95;5.85;;;;;;;20.09;78.20;97458.42;1803561;79;21007;-68
2022/07/31 01:22:31;;;;;;;9.88;5.70;;;;;;;20.09;78.61;97464.62;1802613;79;21658;-68
2022/07/31 01:25:27;;;;;;;12.53;6.20;;;;;;;20.12;78.87;97462.55;1801287;79;20874;-67
2022/07/31 01:28:23;;;;;;;12.43;6.47;;;;;;;20.16;79.11;97464.73;1800009;79;20877;-67
2022/07/31 01:30:58;;;;;;;10.35;6.10;;;;;;;20.16;79.33;97468.81;1800912;79;20849;-66
2022/07/31 01:33:29;;;;;;;9.10;5.45;;;;;;;20.18;79.54;97470.62;1800828;79;25308;-68
2022/07/31 01:36:00;;;;;;;10.28;5.90;;;;;;;20.20;79.84;97466.16;1801102;79;21100;-68
2022/07/31 01:38:34;;;;;;;10.65;6.10;;;;;;;20.23;80.14;97471.67;1801246;79;21451;-68
2022/07/31 01:41:04;;;;;;;9.30;5.80;;;;;;;20.27;80.30;97472.53;1801209;79;20861;-69
2022/07/31 01:43:36;;;;;;;15.58;6.08;;;;;;;20.32;80.45;97476.30;1801242;79;20925;-68
2022/07/31 01:46:03;;;;;;;9.15;5.85;;;;;;;20.34;80.54;97461.77;1800978;79;20991;-68
2022/07/31 01:48:32;;;;;;;10.90;5.45;;;;;;;20.38;80.66;97463.95;1801082;79;21261;-68
2022/07/31 01:51:00;;;;;;;10.98;5.85;;;;;;;20.39;80.80;97472.90;1800892;79;20858;-68
2022/07/31 01:53:33;;;;;;;10.58;5.67;;;;;;;20.40;81.06;97473.88;1779210;79;21377;-68
2022/07/31 01:56:00;;;;;;;10.05;6.78;;;;;;;20.41;81.24;97474.11;1800992;79;20945;-68
2022/07/31 01:58:27;;;;;;;8.23;5.62;;;;;;;20.43;81.40;97475.88;1801197;79;21503;-68
2022/07/31 02:00:58;;;;;;;9.60;6.10;;;;;;;20.44;81.52;97469.27;1800770;79;21228;-68
2022/07/31 02:03:25;;;;;;;8.50;5.40;;;;;;;20.45;81.64;97468.13;1800880;79;20878;-68
2022/07/31 02:05:51;;;;;;;10.23;5.42;;;;;;;20.48;81.86;97471.27;1801355;79;21423;-68
2022/07/31 02:08:18;;;;;;;8.63;5.20;;;;;;;20.44;82.02;97466.55;1801146;79;21390;-68
2022/07/31 02:10:45;;;;;;;8.73;5.65;;;;;;;20.43;82.17;97466.93;1801287;79;21427;-68
2022/07/31 02:13:12;;;;;;;10.40;5.80;;;;;;;20.41;82.52;97463.22;1801030;79;21907;-68
2022/07/31 02:15:40;;;;;;;10.65;6.03;;;;;;;20.41;82.77;97465.16;1800985;79;20866;-67
2022/07/31 02:18:08;;;;;;;11.48;6.58;;;;;;;20.37;82.93;97463.73;1800944;79;20889;-67
2022/07/31 02:20:37;;;;;;;11.35;6.67;;;;;;;20.37;83.24;97465.09;1801022;79;20956;-66
2022/07/31 02:23:03;;;;;;;18.00;6.78;;;;;;;20.39;83.38;97463.38;1801069;79;21558;-65
2022/07/31 02:25:31;;;;;;;9.78;6.42;;;;;;;20.39;83.58;97464.17;1801018;79;21112;-65
2022/07/31 02:27:59;;;;;;;14.33;7.03;;;;;;;20.40;83.72;97461.64;1800867;79;20912;-66
2022/07/31 02:30:27;;;;;;;10.90;6.67;;;;;;;20.38;83.91;97468.03;1801056;79;20960;-66
2022/07/31 02:32:54;;;;;;;15.13;7.33;;;;;;;20.37;84.11;97463.73;1800929;79;21035;-66
2022/07/31 02:35:20;;;;;;;17.25;6.62;;;;;;;20.39;84.22;97469.61;1801579;79;21420;-66
2022/07/31 02:37:49;;;;;;;9.40;6.45;;;;;;;20.42;84.37;97473.50;1800944;79;21213;-66
2022/07/31 02:40:15;;;;;;;15.50;6.70;;;;;;;20.42;84.55;97472.94;1801250;79;20905;-66
2022/07/31 02:42:44;;;;;;;13.80;6.05;;;;;;;20.43;84.66;97472.37;1801139;79;21466;-67
2022/07/31 02:45:10;;;;;;;7.97;5.85;;;;;;;20.41;84.76;97472.74;1778727;79;20881;-67
2022/07/31 02:47:38;;;;;;;9.73;5.97;;;;;;;20.39;84.94;97476.98;1800956;79;20916;-67
2022/07/31 02:50:07;;;;;;;9.90;6.25;;;;;;;20.40;85.14;97475.81;1800771;79;21978;-67
2022/07/31 02:52:35;;;;;;;11.35;6.65;;;;;;;20.39;85.45;97488.65;1800958;79;20948;-67
2022/07/31 02:55:02;;;;;;;17.52;6.97;;;;;;;20.39;85.56;97487.86;1800930;79;20871;-67
2022/07/31 02:57:29;;;;;;;12.65;6.30;;;;;;;20.38;85.76;97489.78;1801115;79;20914;-67
2022/07/31 02:59:56;;;;;;;11.15;6.50;;;;;;;20.36;85.96;97492.09;1801259;79;21458;-67
2022/07/31 03:02:24;;;;;;;10.98;6.45;;;;;;;20.35;86.14;97491.87;1800917;79;21103;-67
2022/07/31 03:04:51;;;;;;;12.47;7.22;;;;;;;20.37;86.43;97482.00;1800829;79;20861;-67
2022/07/31 03:07:17;;;;;;;11.15;7.55;;;;;;;20.39;86.60;97485.14;1801026;79;20956;-67
2022/07/31 03:09:46;;;;;;;11.63;7.17;;;;;;;20.41;86.73;97490.42;1801180;79;20925;-67
2022/07/31 03:12:31;;;;;;;8.78;5.60;;;;;;;20.41;86.85;97484.19;1801078;79;20904;-67
2022/07/31 03:14:58;;;;;;;9.55;6.00;;;;;;;20.42;87.12;97491.19;1800909;79;21103;-67
2022/07/31 03:17:24;;;;;;;6.67;5.47;;;;;;;20.39;87.33;97491.37;1800973;79;20960;-67
2022/07/31 03:19:52;;;;;;;7.95;5.90;;;;;;;20.39;87.55;97494.66;1778758;79;21365;-67
2022/07/31 03:22:19;;;;;;;10.78;5.78;;;;;;;20.39;87.78;97483.20;1796571;79;20881;-67
2022/07/31 03:24:45;;;;;;;7.97;5.58;;;;;;;20.39;87.88;97487.29;1768047;81;21538;-67
2022/07/31 03:27:13;;;;;;;7.85;5.12;;;;;;;20.39;88.09;97483.20;1767782;81;21229;-67
2022/07/31 03:29:40;;;;;;;5.50;4.92;;;;;;;20.40;88.11;97488.05;1767639;81;20865;-67
2022/07/31 03:32:06;;;;;;;9.18;5.03;;;;;;;20.38;88.09;97487.06;1767688;81;20951;-67
2022/07/31 03:34:33;;;;;;;6.22;5.03;;;;;;;20.39;88.28;97485.93;1767674;81;20991;-67
2022/07/31 03:37:00;;;;;;;6.78;5.58;;;;;;;20.41;88.26;97490.42;1767825;81;20981;-67
2022/07/31 03:39:26;;;;;;;7.45;5.62;;;;;;;20.42;88.30;97478.37;1767703;81;21218;-67
2022/07/31 03:41:55;;;;;;;8.68;5.50;;;;;;;20.41;88.32;97488.27;1767404;81;20936;-67
2022/07/31 03:44:22;;;;;;;7.25;4.95;;;;;;;20.40;88.34;97479.32;1767689;81;20896;-67
2022/07/31 03:46:48;;;;;;;5.78;5.10;;;;;;;20.39;88.34;97485.93;1767738;81;20909;-67
2022/07/31 03:49:16;;;;;;;8.08;4.80;;;;;;;20.42;88.42;97490.61;1767712;81;20959;-68
2022/07/31 03:51:42;;;;;;;7.92;5.53;;;;;;;20.40;88.39;97484.77;1767690;81;21084;-67
2022/07/31 03:54:09;;;;;;;12.33;6.80;;;;;;;20.38;88.36;97487.64;1767737;81;20896;-67
2022/07/31 03:56:37;;;;;;;8.35;6.40;;;;;;;20.35;88.34;97488.36;1767793;81;21028;-67
2022/07/31 03:59:03;;;;;;;11.53;6.72;;;;;;;20.33;88.41;97487.38;1767809;81;20999;-68
2022/07/31 04:01:33;;;;;;;11.85;7.90;;;;;;;20.34;88.66;97484.88;1767916;81;20849;-67
2022/07/31 04:04:00;;;;;;;13.98;8.50;;;;;;;20.39;88.58;97487.29;1722104;81;21065;-67
2022/07/31 04:06:35;;;;;;;16.48;8.38;;;;;;;20.40;88.43;97483.97;1767940;81;20880;-67
2022/07/31 04:09:03;;;;;;;12.82;8.65;;;;;;;20.44;88.35;97479.39;1767838;81;20900;-67
2022/07/31 04:11:31;;;;;;;12.88;8.60;;;;;;;20.49;88.23;97474.97;1767809;81;20908;-67
2022/07/31 04:13:58;;;;;;;12.35;8.00;;;;;;;20.56;88.13;97470.23;1768160;81;21383;-67
2022/07/31 04:16:24;;;;;;;11.90;7.80;;;;;;;20.61;87.91;97469.31;1767918;81;21217;-67
2022/07/31 04:18:51;;;;;;;13.65;8.45;;;;;;;20.65;87.71;97466.09;1767778;81;20893;-67
2022/07/31 04:21:17;;;;;;;10.15;7.75;;;;;;;20.70;87.46;97459.55;1768250;81;21471;-67
2022/07/31 04:23:44;;;;;;;15.43;8.43;;;;;;;20.78;87.36;97466.62;1767850;79;21032;-67
2022/07/31 04:26:21;;;;;;;14.87;9.03;;;;;;;20.86;87.07;97469.66;1734310;82;20909;-67
2022/07/31 04:28:52;;;;;;;9.18;7.10;;;;;;;20.90;86.79;97468.55;1777288;80;21985;-67
2022/07/31 04:31:19;;;;;;;12.35;7.97;;;;;;;20.95;86.79;97474.25;1778171;80;21407;-67
2022/07/31 04:33:47;;;;;;;13.45;9.30;;;;;;;20.99;86.64;97471.77;1778033;80;20904;-67
2022/07/31 04:36:16;;;;;;;15.83;8.85;;;;;;;21.04;86.44;97464.68;1777894;80;20982;-67
2022/07/31 04:38:43;;;;;;;13.60;9.53;;;;;;;21.08;86.11;97464.70;1778046;80;21352;-67
2022/07/31 04:41:10;;;;;;;14.87;8.48;;;;;;;21.13;85.80;97461.66;1777923;80;21180;-67
2022/07/31 04:43:36;;;;;;;8.58;7.30;;;;;;;21.17;85.48;97462.51;1777934;80;20915;-67
2022/07/31 04:46:04;;;;;;;10.30;6.92;;;;;;;21.19;85.22;97466.20;1777974;80;20916;-67
2022/07/31 04:48:32;;;;;;;15.60;7.65;;;;;;;21.20;84.87;97464.47;1777877;80;20928;-67
2022/07/31 04:50:59;;;;;;;10.98;7.28;;;;;;;21.22;84.93;97473.04;1777936;80;20864;-67
2022/07/31 04:53:26;;;;;;;8.03;6.28;;;;;;;21.25;85.09;97474.23;1777979;80;21224;-67
2022/07/31 04:58:37;;;;;;;8.15;7.10;;;;;;;21.29;85.02;97472.36;1778466;80;21427;-67
2022/07/31 05:01:04;;;;;;;9.50;6.62;;;;;;;21.35;85.05;97468.93;1777955;80;20919;-67
2022/07/31 05:03:31;;;;;;;9.10;6.47;;;;;;;21.39;85.03;97468.38;1777894;80;20892;-67
2022/07/31 05:06:12;;;;;;;8.73;6.53;;;;;;;21.42;84.76;97463.55;1777865;80;21992;-67
2022/07/31 05:08:39;;;;;;;11.05;7.12;;;;;;;21.47;84.59;97463.22;1777861;80;20832;-68
2022/07/31 05:11:21;;;;;;;8.60;6.45;;;;;;;21.53;84.40;97480.79;1777883;80;20904;-67
2022/07/31 05:13:53;;;;;;;10.30;7.08;;;;;;;21.54;84.31;97469.32;1777866;80;20951;-67
2022/07/31 05:16:20;;;;;;;8.15;6.40;;;;;;;21.55;84.51;97464.84;1778113;80;20876;-67
2022/07/31 05:18:47;;;;;;;11.68;6.62;;;;;;;21.56;84.39;97466.43;1777884;80;21114;-67
2022/07/31 05:21:30;;;;;;;11.28;7.08;;;;;;;21.57;84.40;97466.65;1773511;80;20876;-67
2022/07/31 05:23:59;;;;;;;9.78;7.15;;;;;;;21.59;84.79;97468.98;1777768;79;20912;-67
2022/07/31 05:26:29;;;;;;;12.28;7.33;;;;;;;21.59;85.21;97466.26;1772118;80;20959;-67
2022/07/31 05:28:58;;;;;;;11.48;7.08;;;;;;;21.60;85.07;97467.23;1777887;80;20963;-67
2022/07/31 05:31:27;;;;;;;10.72;6.17;;;;;;;21.60;85.41;97463.16;1778157;80;21673;-66
2022/07/31 05:33:53;;;;;;;11.03;7.55;;;;;;;21.61;85.50;97460.64;1777802;80;20895;-66
2022/07/31 05:36:20;;;;;;;11.40;7.65;;;;;;;21.60;85.87;97465.88;1777953;80;20895;-67
2022/07/31 05:38:47;;;;;;;7.42;6.15;;;;;;;21.60;86.04;97472.69;1777846;80;20924;-67
2022/07/31 05:41:16;;;;;;;8.53;5.62;;;;;;;21.61;86.36;97469.39;1777831;80;20888;-67
2022/07/31 05:43:57;;;;;;;8.88;5.58;;;;;;;21.62;86.47;97468.25;1761645;80;21126;-67
2022/07/31 05:46:25;;;;;;;8.55;6.30;;;;;;;21.64;86.65;97470.02;1777545;80;20881;-68
2022/07/31 05:48:52;;;;;;;8.48;5.87;;;;;;;21.67;86.69;97471.39;1777955;80;20852;-68
2022/07/31 05:51:18;;;;;;;7.00;5.92;;;;;;;21.69;86.85;97473.77;1778329;80;20821;-68
2022/07/31 05:53:45;;;;;;;8.33;6.58;;;;;;;21.70;86.94;97473.38;1777864;80;20931;-70
2022/07/31 05:56:30;;;;;;;9.58;6.42;;;;;;;21.73;87.10;97478.09;1778111;80;21067;-67
2022/07/31 05:58:58;;;;;;;7.12;5.33;;;;;;;21.73;87.23;97482.75;1778076;80;21435;-66
2022/07/31 06:01:25;;;;;;;10.15;6.08;;;;;;;21.72;87.26;97475.15;1777934;80;21028;-67
2022/07/31 06:03:52;;;;;;;9.28;6.33;;;;;;;21.76;87.23;97478.68;1778037;80;21427;-67
2022/07/31 06:06:21;;;;;;;7.85;5.75;;;;;;;21.79;87.26;97482.60;1778157;80;45855;-67
2022/07/31 06:08:47;;;;;;;10.45;5.53;;;;;;;21.83;87.50;97481.48;1777926;80;21830;-67
2022/07/31 06:11:14;;;;;;;10.78;6.92;;;;;;;21.87;87.37;97486.22;1777416;80;20947;-67
2022/07/31 06:13:42;;;;;;;9.70;7.42;;;;;;;21.87;87.17;97479.40;1777854;80;20891;-67
2022/07/31 06:16:22;;;;;;;12.05;9.15;;;;;;;21.89;87.39;97482.53;1777268;80;20877;-67
2022/07/31 06:18:49;;;;;;;12.00;8.15;;;;;;;21.92;87.82;97481.78;1777853;80;20841;-67
2022/07/31 06:21:17;;;;;;;13.45;9.40;;;;;;;21.96;88.17;97483.95;1752137;80;21702;-67
2022/07/31 06:23:43;;;;;;;11.10;7.30;;;;;;;21.99;88.37;97485.94;1777736;79;20904;-67
2022/07/31 06:26:12;;;;;;;12.25;8.10;;;;;;;22.01;88.18;97486.34;1767837;80;20900;-68
2022/07/31 06:28:39;;;;;;;10.82;7.70;;;;;;;22.02;88.08;97478.37;1777811;80;20880;-68
2022/07/31 06:31:05;;;;;;;7.62;6.08;;;;;;;22.05;88.28;97476.23;1777854;80;20963;-68
2022/07/31 06:33:32;;;;;;;6.33;5.45;;;;;;;22.09;88.24;97483.28;1777840;80;21220;-67
2022/07/31 06:35:59;;;;;;;6.97;5.72;;;;;;;22.11;87.76;97482.93;1777934;80;21420;-69
2022/07/31 06:38:40;;;;;;;9.33;6.25;;;;;;;22.11;87.61;97478.84;1777853;80;20915;-68
2022/07/31 06:41:43;;;;;;;10.63;6.15;;;;;;;22.13;87.76;97486.06;1777925;80;20988;-67
2022/07/31 06:44:23;;;;;;;9.08;6.78;;;;;;;22.13;87.91;97483.33;1724750;80;20872;-67
2022/07/31 06:47:08;;;;;;;8.73;5.55;;;;;;;22.15;87.68;97478.28;1778019;80;21100;-67
2022/07/31 06:49:53;;;;;;;7.92;5.70;;;;;;;22.12;87.31;97481.75;1778032;80;20825;-67
2022/07/31 06:52:22;;;;;;;9.55;6.80;;;;;;;22.11;87.34;97480.20;1778097;80;20944;-68
2022/07/31 06:54:48;;;;;;;8.95;6.75;;;;;;;22.09;87.26;97472.38;1777789;80;20927;-66
2022/07/31 06:57:15;;;;;;;7.85;5.90;;;;;;;22.06;87.27;97479.18;1778145;80;21522;-68
2022/07/31 06:59:42;;;;;;;6.62;4.87;;;;;;;22.06;87.32;97473.73;1777821;80;21182;-67
2022/07/31 07:02:09;;;;;;;6.25;4.33;;;;;;;22.03;87.19;97473.11;1777755;80;20896;-67
2022/07/31 07:04:36;;;;;;;5.35;4.10;;;;;;;21.98;87.26;97477.55;1777859;80;20932;-66
2022/07/31 07:07:03;;;;;;;6.03;4.17;;;;;;;21.92;87.28;97477.70;1777748;80;20916;-67
2022/07/31 07:09:30;;;;;;;5.55;4.08;;;;;;;21.89;87.73;97475.72;1777938;80;20836;-67
2022/07/31 07:11:57;;;;;;;5.37;4.40;;;;;;;21.87;87.89;97473.95;1777877;80;21026;-67
2022/07/31 07:14:24;;;;;;;5.83;3.92;;;;;;;21.89;88.28;97471.63;1777856;80;20987;-67
2022/07/31 07:16:51;;;;;;;4.33;3.90;;;;;;;21.92;88.24;97477.70;1777912;80;20821;-67
2022/07/31 07:19:18;;;;;;;5.00;3.87;;;;;;;21.94;88.00;97475.38;1777901;80;20916;-67
2022/07/31 07:21:44;;;;;;;6.20;4.28;;;;;;;21.97;88.45;97474.62;1778131;80;21463;-67
2022/07/31 07:24:11;;;;;;;5.22;4.20;;;;;;;21.96;88.42;97474.41;1777738;79;21288;-67
2022/07/31 07:26:40;;;;;;;4.05;3.65;;;;;;;22.00;88.59;97468.44;1774154;80;20904;-66
2022/07/31 07:29:09;;;;;;;5.35;4.10;;;;;;;22.02;88.64;97472.92;1777894;80;21280;-69
2022/07/31 07:31:36;;;;;;;5.22;4.47;;;;;;;22.05;88.23;97474.88;1777889;80;20880;-68
2022/07/31 07:34:05;;;;;;;5.25;4.75;;;;;;;22.06;88.02;97480.55;1778091;80;20825;-67
2022/07/31 07:36:32;;;;;;;6.62;4.85;;;;;;;22.05;87.76;97478.39;1778065;80;21099;-68
2022/07/31 07:39:01;;;;;;;5.12;4.35;;;;;;;22.02;87.65;97481.11;1777963;80;21436;-67
2022/07/31 07:41:29;;;;;;;6.28;4.30;;;;;;;21.96;87.81;97481.23;1777955;80;20907;-66
2022/07/31 07:43:55;;;;;;;5.78;4.70;;;;;;;21.90;88.16;97486.84;1777955;80;20908;-68
2022/07/31 07:46:24;;;;;;;7.70;4.90;;;;;;;21.81;88.07;97486.52;1777787;80;21387;-66
2022/07/31 07:48:52;;;;;;;6.50;4.83;;;;;;;21.67;88.54;97480.94;1777744;80;21244;-66
2022/07/31 07:51:21;;;;;;;6.22;5.25;;;;;;;21.60;88.87;97483.59;1727952;80;21356;-67
2022/07/31 07:53:52;;;;;;;7.60;4.65;;;;;;;21.58;89.49;97489.20;1777118;80;20833;-67
2022/07/31 07:56:21;;;;;;;5.67;4.45;;;;;;;21.55;89.91;97483.16;1754394;80;20987;-65
2022/07/31 07:59:05;;;;;;;5.15;4.35;;;;;;;21.56;90.12;97490.16;1778211;80;21438;-66
2022/07/31 08:01:50;;;;;;;5.50;4.53;;;;;;;21.54;90.34;97487.82;1778096;80;22012;-67
2022/07/31 08:04:19;;;;;;;7.03;4.67;;;;;;;21.58;90.63;97487.27;1777520;80;20872;-67
2022/07/31 08:06:46;;;;;;;7.70;5.40;;;;;;;21.61;90.80;97487.10;1777906;80;20979;-67
2022/07/31 08:09:12;;;;;;;6.47;5.00;;;;;;;21.60;90.90;97487.67;1778008;80;20920;-66
2022/07/31 08:11:57;;;;;;;8.73;5.08;;;;;;;21.62;90.86;97487.32;1778205;80;20963;-67
2022/07/31 08:14:29;;;;;;;5.97;4.45;;;;;;;21.64;90.80;97482.28;1774564;80;21229;-67
2022/07/31 08:16:57;;;;;;;6.53;4.78;;;;;;;21.66;90.99;97481.31;1773422;80;20888;-67
2022/07/31 08:19:24;;;;;;;8.78;5.62;;;;;;;21.71;91.08;97480.98;1778043;80;20983;-67
2022/07/31 08:21:51;;;;;;;8.43;5.40;;;;;;;21.73;91.17;97479.45;1777893;80;20919;-67
2022/07/31 08:24:18;;;;;;;7.53;5.00;;;;;;;21.73;91.24;97484.91;1780715;79;20879;-66
2022/07/31 08:29:30;;;;;;;5.95;4.35;;;;;;;21.72;91.28;97481.17;1786599;80;20963;-67
2022/07/31 08:31:58;;;;;;;4.83;4.05;;;;;;;21.71;91.52;97489.95;1784644;80;20955;-67
2022/07/31 08:34:43;;;;;;;5.83;4.30;;;;;;;21.71;91.38;97484.50;1786724;80;20991;-67
2022/07/31 08:37:12;;;;;;;5.78;4.58;;;;;;;21.75;91.46;97479.06;1786585;80;20875;-66
2022/07/31 08:39:38;;;;;;;5.53;4.30;;;;;;;21.83;91.59;97467.66;1786494;80;21225;-67
2022/07/31 08:42:08;;;;;;;4.30;3.90;;;;;;;21.91;91.45;97471.45;1786387;80;20955;-68
2022/07/31 08:44:36;;;;;;;5.50;4.50;;;;;;;21.97;91.49;97474.06;1786470;80;20959;-67
2022/07/31 08:47:06;;;;;;;5.25;4.58;;;;;;;22.05;91.22;97470.78;1786423;80;21407;-65
2022/07/31 08:49:37;;;;;;;4.72;4.20;;;;;;;22.15;90.96;97476.91;1786498;80;20860;-67
2022/07/31 08:52:03;;;;;;;5.33;4.20;;;;;;;22.20;90.01;97473.84;1786600;80;21239;-69
2022/07/31 08:54:35;;;;;;;5.60;4.83;;;;;;;22.22;89.42;97472.88;1779794;80;20966;-68
2022/07/31 08:57:03;;;;;;;6.12;5.00;;;;;;;22.25;89.24;97468.04;1786487;79;20864;-69
2022/07/31 08:59:30;;;;;;;5.37;4.42;;;;;;;22.34;89.30;97464.40;1786744;80;21384;-67
2022/07/31 09:01:57;;;;;;;5.67;4.85;;;;;;;22.43;88.65;97468.94;1788783;78;21517;-68
2022/07/31 09:04:24;;;;;;;6.22;4.40;;;;;;;22.49;88.80;97466.83;1786832;80;21684;-68
2022/07/31 09:06:51;;;;;;;4.20;3.80;;;;;;;22.59;89.15;97459.88;1786379;80;20892;-68
2022/07/31 09:09:18;;;;;;;4.37;3.83;;;;;;;22.70;88.85;97465.44;1762485;80;20951;-68
2022/07/31 09:11:48;;;;;;;4.78;4.00;;;;;;;22.77;88.35;97463.54;1786445;80;20998;-69
2022/07/31 09:14:34;;;;;;;5.42;4.30;;;;;;;22.85;87.31;97465.13;1786812;80;21365;-68
2022/07/31 09:17:02;;;;;;;4.62;4.08;;;;;;;22.93;86.51;97459.12;1762869;80;21363;-69
2022/07/31 09:19:38;;;;;;;3.90;3.60;;;;;;;22.95;85.86;97460.88;1786480;80;20868;-68
2022/07/31 09:22:06;;;;;;;4.72;4.10;;;;;;;22.97;85.45;97464.80;1786574;78;20868;-67
2022/07/31 09:24:34;;;;;;;4.47;3.83;;;;;;;22.98;85.11;97459.55;1784284;79;21391;-66
2022/07/31 09:27:05;;;;;;;6.08;4.37;;;;;;;22.96;85.33;97468.68;1777893;80;20876;-67
2022/07/31 09:29:35;;;;;;;4.08;3.77;;;;;;;22.90;85.45;97467.49;1777075;80;21264;-67
2022/07/31 09:32:14;;;;;;;5.67;3.60;;;;;;;22.84;85.17;97468.25;1751957;80;20908;-67
2022/07/31 09:34:49;;;;;;;6.90;4.28;;;;;;;22.75;85.31;97467.20;1769894;80;21502;-67
2022/07/31 09:37:19;;;;;;;4.25;3.85;;;;;;;22.70;85.76;97467.59;1777830;80;21004;-66
2022/07/31 09:39:55;;;;;;;4.20;3.80;;;;;;;22.64;85.26;97470.47;1778016;80;20825;-67
2022/07/31 09:42:43;;;;;;;6.97;4.20;;;;;;;22.52;85.39;97468.02;1777955;80;21225;-68
2022/07/31 09:45:22;;;;;;;5.22;4.15;;;;;;;22.36;85.73;97466.16;1776365;80;20920;-68
2022/07/31 09:48:07;;;;;;;4.45;4.05;;;;;;;22.23;86.42;97471.73;1777945;80;20971;-69
2022/07/31 09:50:33;;;;;;;5.90;4.15;;;;;;;22.19;87.08;97467.59;1778079;80;20920;-67
2022/07/31 09:53:00;;;;;;;4.20;3.80;;;;;;;22.13;87.41;97471.84;1777871;80;20900;-68
2022/07/31 09:55:28;;;;;;;6.22;3.87;;;;;;;22.12;87.18;97476.30;1777973;80;21309;-66
2022/07/31 09:57:57;;;;;;;7.80;4.20;;;;;;;22.13;87.32;97469.70;1777901;80;21025;-66
2022/07/31 10:00:26;;;;;;;4.25;3.85;;;;;;;22.15;87.48;97479.64;1778159;80;21023;-66
2022/07/31 10:02:54;;;;;;;5.22;3.77;;;;;;;22.17;87.27;97474.59;1777835;80;20911;-66
2022/07/31 10:05:24;;;;;;;5.42;3.83;;;;;;;22.17;87.70;97474.02;1777887;80;21414;-67
2022/07/31 10:07:52;;;;;;;4.50;3.95;;;;;;;22.21;87.92;97469.36;1778221;80;22024;-66
2022/07/31 10:10:21;;;;;;;4.30;3.90;;;;;;;22.26;88.26;97469.59;1777269;80;21384;-66
2022/07/31 10:12:53;;;;;;;4.90;4.03;;;;;;;22.31;88.21;97470.61;1763618;80;20896;-68
2022/07/31 10:15:20;;;;;;;4.28;3.65;;;;;;;22.34;87.82;97467.12;1778040;80;21364;-67
2022/07/31 10:17:50;;;;;;;4.03;3.45;;;;;;;22.34;87.24;97465.77;1777897;80;20959;-66
2022/07/31 10:20:23;;;;;;;7.08;3.60;;;;;;;22.30;87.23;97468.45;1773726;80;21255;-66
2022/07/31 10:23:15;;;;;;;8.33;3.40;;;;;;;22.26;87.01;97469.59;1777610;80;21008;-67
2022/07/31 10:25:48;;;;;;;3.95;3.55;;;;;;;22.17;86.87;97468.56;1795818;79;20873;-68
2022/07/31 10:28:15;;;;;;;4.20;3.80;;;;;;;22.13;86.71;97473.78;1806295;79;21022;-66
2022/07/31 10:30:46;;;;;;;5.03;3.83;;;;;;;22.09;86.68;97476.47;1786420;79;20908;-67
2022/07/31 10:33:12;;;;;;;4.70;3.80;;;;;;;22.12;87.35;97477.66;1806463;79;21290;-66
2022/07/31 10:36:19;;;;;;;4.03;3.62;;;;;;;22.19;87.87;97482.60;1806269;79;20937;-66
2022/07/31 10:39:45;;;;;;;4.33;3.87;;;;;;;22.27;88.03;97477.41;1806419;79;20873;-67
2022/07/31 10:42:38;;;;;;;5.10;4.05;;;;;;;22.37;87.98;97481.38;1806336;79;20928;-68
2022/07/31 10:45:13;;;;;;;4.15;3.75;;;;;;;22.41;87.89;97483.55;1806444;79;20884;-67
2022/07/31 10:47:58;;;;;;;6.00;4.00;;;;;;;22.43;87.75;97488.04;1805715;79;21117;-66
2022/07/31 10:50:43;;;;;;;5.33;4.00;;;;;;;22.41;87.94;97484.34;1806371;79;20869;-67
2022/07/31 10:53:18;;;;;;;;;;;;;;;22.41;88.09;97475.36;1808975;79;20956;-67
2022/07/31 10:56:12;;;;;;;8.48;4.92;;;;;;;22.38;88.14;97478.84;1805707;79;20067;-67
2022/07/31 10:58:57;;;;;;;6.30;5.22;;;;;;;22.33;88.11;97479.19;1733646;82;21036;-67
2022/07/31 11:01:25;;;;;;;8.50;5.70;;;;;;;22.28;87.85;97474.11;1689266;83;21112;-66
2022/07/31 11:04:03;;;;;;;8.10;5.40;;;;;;;22.25;87.63;97474.86;1766975;79;20876;-66
2022/07/31 11:06:47;;;;;;;8.03;5.50;;;;;;;22.22;87.70;97473.67;1807986;79;20904;-66
2022/07/31 11:09:25;;;;;;;9.43;5.80;;;;;;;22.21;87.63;97475.42;1804527;79;20927;-68
2022/07/31 11:11:53;;;;;;;6.85;5.47;;;;;;;22.26;87.69;97472.31;1763850;79;20849;-67
2022/07/31 11:14:37;;;;;;;5.40;4.70;;;;;;;22.32;87.44;97473.55;1808277;79;21333;-67
2022/07/31 11:17:35;;;;;;;5.25;3.98;;;;;;;22.41;87.67;97474.78;1803043;79;20837;-66
2022/07/31 11:20:25;;;;;;;6.62;4.37;;;;;;;22.50;87.27;97473.08;1776292;79;20992;-66
2022/07/31 11:23:07;;;;;;;4.50;4.10;;;;;;;22.56;86.74;97463.39;1806141;79;20925;-67
2022/07/31 11:25:35;;;;;;;4.62;4.20;;;;;;;22.59;86.22;97466.70;1797915;79;20849;-67
2022/07/31 11:28:23;;;;;;;6.22;3.87;;;;;;;22.60;86.07;97465.55;1786621;80;21210;-68
2022/07/31 11:30:59;;;;;;;4.40;4.00;;;;;;;22.64;85.87;97475.14;1786704;80;20871;-67
2022/07/31 11:33:44;;;;;;;4.42;4.03;;;;;;;22.57;85.54;97466.88;1786647;80;20954;-67
2022/07/31 11:36:19;;;;;;;4.67;4.22;;;;;;;22.53;85.69;97470.17;1786940;80;21447;-67
2022/07/31 11:38:49;;;;;;;6.00;4.22;;;;;;;22.48;85.52;97473.47;1786864;78;20966;-67
2022/07/31 11:41:20;;;;;;;3.72;3.42;;;;;;;22.39;85.35;97469.50;1787040;80;21247;-66
2022/07/31 11:43:51;;;;;;;5.05;2.95;;;;;;;22.27;84.81;97469.23;1786619;78;20879;-66
2022/07/31 11:46:27;;;;;;;3.65;3.35;;;;;;;22.18;84.04;97470.14;1786767;80;20947;-66
2022/07/31 11:48:54;;;;;;;5.47;3.80;;;;;;;22.09;83.87;97477.08;1786740;80;20855;-66
2022/07/31 11:51:21;;;;;;;4.78;3.40;;;;;;;22.02;83.90;97474.28;1786687;80;20875;-67
2022/07/31 11:53:48;;;;;;;3.87;3.45;;;;;;;21.94;83.89;97475.38;1786748;80;21164;-67